createdAt,value
2018-06-10T00:02:20.755Z,31.87
2018-06-10T00:04:49.347Z,33.87
2018-06-10T00:07:17.913Z,37.33
2018-06-10T00:09:46.500Z,41.07
2018-06-10T00:12:15.072Z,43.70
2018-06-10T00:14:43.657Z,42.40
2018-06-10T00:17:12.256Z,54.47
2018-06-10T00:19:40.825Z,42.47
2018-06-10T00:22:09.426Z,39.53
2018-06-10T00:24:37.974Z,41.30
2018-06-10T00:27:06.601Z,40.47
2018-06-10T00:29:41.696Z,46.00
2018-06-10T00:32:10.300Z,33.80
2018-06-10T00:34:38.905Z,34.40
2018-06-10T00:37:07.466Z,31.70
2018-06-10T00:39:36.029Z,28.27
2018-06-10T00:42:04.641Z,28.27
2018-06-10T00:44:33.208Z,32.40
2018-06-10T00:47:01.780Z,33.47
2018-06-10T00:49:30.432Z,33.80
2018-06-10T00:51:58.998Z,33.77
2018-06-10T00:54:27.550Z,35.00
2018-06-10T00:56:56.099Z,40.10
2018-06-10T00:59:24.651Z,36.87
2018-06-10T01:01:53.220Z,32.97
2018-06-10T01:04:21.772Z,35.27
2018-06-10T01:06:50.328Z,31.10
2018-06-10T01:09:18.879Z,31.73
2018-06-10T01:11:47.487Z,46.57
2018-06-10T01:14:16.045Z,30.53
2018-06-10T01:16:44.660Z,36.00
2018-06-10T01:19:13.221Z,32.07
2018-06-10T01:21:41.860Z,30.70
2018-06-10T01:24:10.473Z,27.30
2018-06-10T01:26:44.448Z,25.70
2018-06-10T01:29:13.034Z,26.80
2018-06-10T01:31:41.310Z,26.87
2018-06-10T01:34:09.874Z,31.00
2018-06-10T01:36:38.464Z,33.83
2018-06-10T01:39:07.339Z,33.10
2018-06-10T01:41:36.220Z,41.70
2018-06-10T01:44:04.753Z,29.80
2018-06-10T01:46:33.333Z,24.40
2018-06-10T01:49:01.909Z,29.40
2018-06-10T01:51:30.491Z,32.63
2018-06-10T01:53:59.037Z,21.87
2018-06-10T01:56:27.617Z,23.00
2018-06-10T01:58:56.157Z,23.37
2018-06-10T02:01:24.712Z,22.13
2018-06-10T02:03:53.269Z,23.83
2018-06-10T02:06:21.830Z,22.87
2018-06-10T02:08:50.376Z,26.33
2018-06-10T02:11:18.972Z,27.43
2018-06-10T02:13:47.476Z,23.90
2018-06-10T02:16:16.041Z,20.47
2018-06-10T02:18:44.600Z,21.90
2018-06-10T02:21:13.156Z,21.83
2018-06-10T02:23:41.689Z,22.40
2018-06-10T02:26:10.296Z,23.30
2018-06-10T02:28:38.851Z,23.53
2018-06-10T02:31:07.470Z,23.50
2018-06-10T02:33:36.057Z,27.27
2018-06-10T02:36:04.718Z,33.10
2018-06-10T02:38:33.337Z,34.77
2018-06-10T02:41:01.943Z,35.80
2018-06-10T02:43:30.539Z,29.07
2018-06-10T02:45:59.141Z,41.37
2018-06-10T02:48:27.724Z,37.60
2018-06-10T02:50:56.305Z,53.90
2018-06-10T02:53:24.893Z,51.27
2018-06-10T02:55:53.453Z,53.70
2018-06-10T02:58:22.032Z,51.70
2018-06-10T03:00:50.583Z,50.83
2018-06-10T03:03:19.167Z,50.73
2018-06-10T03:05:47.725Z,33.37
2018-06-10T03:08:16.308Z,29.50
2018-06-10T03:10:44.870Z,42.13
2018-06-10T03:13:13.440Z,33.57
2018-06-10T03:15:42.054Z,32.43
2018-06-10T03:18:10.637Z,34.50
2018-06-10T03:20:39.227Z,46.27
2018-06-10T03:23:07.828Z,42.00
2018-06-10T03:25:36.440Z,42.73
2018-06-10T03:28:05.036Z,36.93
2018-06-10T03:30:33.596Z,39.47
2018-06-10T03:33:02.166Z,44.97
2018-06-10T03:35:30.880Z,43.03
2018-06-10T03:37:59.460Z,35.43
2018-06-10T03:40:28.043Z,27.57
2018-06-10T03:42:56.632Z,36.07
2018-06-10T03:45:25.185Z,28.00
2018-06-10T03:47:53.770Z,22.17
2018-06-10T03:50:22.319Z,19.13
2018-06-10T03:52:50.892Z,19.33
2018-06-10T03:55:19.467Z,22.00
2018-06-10T03:57:48.041Z,17.17
2018-06-10T04:00:16.597Z,16.30
2018-06-10T04:02:45.166Z,20.87
2018-06-10T04:05:13.753Z,17.83
2018-06-10T04:07:42.356Z,17.10
2018-06-10T04:10:10.912Z,15.60
2018-06-10T04:12:39.498Z,15.60
2018-06-10T04:15:08.116Z,14.97
2018-06-10T04:17:36.698Z,16.03
2018-06-10T04:20:05.270Z,16.53
2018-06-10T04:22:33.875Z,17.90
2018-06-10T04:25:02.439Z,20.47
2018-06-10T04:27:31.038Z,29.87
2018-06-10T04:29:59.585Z,22.67
2018-06-10T04:32:28.229Z,23.27
2018-06-10T04:34:56.777Z,27.23
2018-06-10T04:37:25.364Z,23.60
2018-06-10T04:39:53.970Z,22.60
2018-06-10T04:42:22.607Z,23.30
2018-06-10T04:44:51.213Z,19.40
2018-06-10T04:47:19.782Z,19.50
2018-06-10T04:49:48.349Z,18.90
2018-06-10T04:52:16.918Z,24.73
2018-06-10T04:54:45.476Z,22.07
2018-06-10T04:57:14.065Z,20.77
2018-06-10T04:59:42.620Z,18.10
2018-06-10T05:02:11.208Z,17.20
2018-06-10T05:04:39.772Z,18.03
2018-06-10T05:07:08.345Z,16.87
2018-06-10T05:09:36.909Z,19.37
2018-06-10T05:12:05.509Z,16.20
2018-06-10T05:14:33.730Z,17.57
2018-06-10T05:17:02.361Z,19.77
2018-06-10T05:19:30.939Z,12.00
2018-06-10T05:21:59.517Z,13.80
2018-06-10T05:24:28.136Z,15.63
2018-06-10T05:26:56.705Z,17.00
2018-06-10T05:29:25.311Z,15.70
2018-06-10T05:31:53.902Z,13.10
2018-06-10T05:34:22.501Z,15.10
2018-06-10T05:36:51.066Z,15.30
2018-06-10T05:39:19.681Z,13.67
2018-06-10T05:41:48.237Z,12.27
2018-06-10T05:44:16.896Z,12.80
2018-06-10T05:46:45.496Z,11.40
2018-06-10T05:49:14.204Z,10.63
2018-06-10T05:51:42.765Z,11.20
2018-06-10T05:54:11.355Z,12.53
2018-06-10T05:56:39.937Z,12.87
2018-06-10T05:59:08.521Z,12.97
2018-06-10T06:01:37.079Z,13.27
2018-06-10T06:04:05.766Z,13.03
2018-06-10T06:06:34.352Z,12.70
2018-06-10T06:09:02.977Z,13.07
2018-06-10T06:11:31.583Z,14.27
2018-06-10T06:14:00.186Z,15.20
2018-06-10T06:16:28.899Z,16.07
2018-06-10T06:18:57.474Z,17.53
2018-06-10T06:21:26.032Z,17.67
2018-06-10T06:23:54.623Z,17.40
2018-06-10T06:26:23.217Z,19.23
2018-06-10T06:28:51.865Z,18.70
2018-06-10T06:31:20.444Z,17.93
2018-06-10T06:54:11.341Z,16.63
2018-06-10T06:56:40.173Z,18.50
2018-06-10T06:59:08.772Z,19.43
2018-06-10T07:01:37.408Z,19.27
2018-06-10T07:04:06.013Z,20.23
2018-06-10T07:06:34.573Z,19.77
2018-06-10T07:09:03.365Z,19.03
2018-06-10T07:11:31.923Z,18.53
2018-06-10T07:14:00.501Z,18.03
2018-06-10T07:16:29.111Z,19.23
2018-06-10T07:18:57.717Z,18.03
2018-06-10T07:21:26.283Z,17.63
2018-06-10T07:23:54.868Z,17.13
2018-06-10T07:26:23.440Z,20.30
2018-06-10T07:28:52.022Z,20.07
2018-06-10T07:31:20.616Z,20.37
2018-06-10T07:33:49.216Z,20.20
2018-06-10T07:36:17.760Z,22.93
2018-06-10T07:38:46.345Z,21.90
2018-06-10T07:41:14.884Z,23.60
2018-06-10T07:43:43.444Z,23.10
2018-06-10T07:46:11.985Z,25.63
2018-06-10T07:48:40.553Z,20.87
2018-06-10T07:51:09.115Z,19.20
2018-06-10T07:53:37.780Z,19.73
2018-06-10T07:56:06.327Z,18.67
2018-06-10T07:58:34.892Z,16.13
2018-06-10T08:01:03.472Z,16.70
2018-06-10T08:03:32.049Z,17.87
2018-06-10T08:06:00.633Z,17.47
2018-06-10T08:08:29.237Z,13.60
2018-06-10T08:10:57.846Z,15.60
2018-06-10T08:13:26.421Z,15.50
2018-06-10T08:15:54.957Z,15.13
2018-06-10T08:18:23.544Z,15.77
2018-06-10T08:20:52.092Z,14.90
2018-06-10T08:23:20.678Z,16.60
2018-06-10T08:25:49.236Z,16.40
2018-06-10T08:28:17.798Z,16.50
2018-06-10T08:30:46.377Z,16.47
2018-06-10T08:33:14.960Z,17.57
2018-06-10T08:35:43.552Z,19.93
2018-06-10T08:38:12.153Z,18.57
2018-06-10T08:40:40.764Z,19.27
2018-06-10T08:43:09.435Z,19.67
2018-06-10T08:45:38.068Z,18.93
2018-06-10T08:48:06.664Z,17.57
2018-06-10T08:50:35.282Z,17.90
2018-06-10T08:53:03.876Z,18.00
2018-06-10T08:55:32.240Z,14.23
2018-06-10T08:58:00.885Z,17.07
2018-06-10T09:00:29.500Z,14.87
2018-06-10T09:02:58.192Z,17.60
2018-06-10T09:05:26.814Z,19.53
2018-06-10T09:07:55.398Z,18.30
2018-06-10T09:10:24.016Z,16.43
2018-06-10T09:12:52.641Z,17.83
2018-06-10T09:15:21.287Z,14.07
2018-06-10T09:17:49.873Z,16.00
2018-06-10T09:20:18.471Z,14.37
2018-06-10T09:22:47.077Z,12.87
2018-06-10T09:25:15.674Z,16.23
2018-06-10T09:27:44.233Z,12.03
2018-06-10T09:30:12.848Z,12.30
2018-06-10T09:32:41.080Z,14.63
2018-06-10T09:35:09.642Z,11.13
2018-06-10T09:37:38.202Z,14.53
2018-06-10T09:40:06.807Z,13.67
2018-06-10T09:42:35.413Z,12.43
2018-06-10T09:45:04.060Z,13.97
2018-06-10T09:47:32.639Z,11.50
2018-06-10T09:50:01.237Z,11.67
2018-06-10T09:52:29.804Z,12.30
2018-06-10T09:54:58.470Z,9.73
2018-06-10T09:57:27.129Z,11.57
2018-06-10T09:59:55.705Z,12.10
2018-06-10T10:02:24.293Z,10.20
2018-06-10T10:04:52.878Z,11.83
2018-06-10T10:07:21.438Z,10.10
2018-06-10T10:09:50.061Z,12.73
2018-06-10T10:12:18.923Z,9.17
2018-06-10T10:14:47.669Z,8.70
2018-06-10T10:17:16.189Z,12.27
2018-06-10T10:19:44.800Z,9.50
2018-06-10T10:22:13.385Z,10.73
2018-06-10T10:24:42.062Z,11.00
2018-06-10T10:27:10.692Z,10.07
2018-06-10T10:32:32.749Z,10.40
2018-06-10T10:35:01.317Z,8.60
2018-06-10T10:37:29.883Z,11.17
2018-06-10T10:39:58.493Z,11.30
2018-06-10T10:42:27.629Z,8.37
2018-06-10T10:44:56.222Z,11.40
2018-06-10T10:47:24.873Z,10.57
2018-06-10T10:49:53.488Z,9.17
2018-06-10T10:52:22.044Z,10.40
2018-06-10T10:54:50.676Z,8.63
2018-06-10T10:57:19.276Z,11.10
2018-06-10T10:59:47.857Z,11.10
2018-06-10T11:02:16.497Z,8.87
2018-06-10T11:04:45.108Z,11.87
2018-06-10T11:07:13.722Z,10.23
2018-06-10T11:09:43.111Z,10.37
2018-06-10T11:12:11.681Z,11.13
2018-06-10T11:14:40.279Z,8.07
2018-06-10T11:17:08.837Z,8.47
2018-06-10T11:19:37.616Z,10.57
2018-06-10T11:22:06.182Z,9.37
2018-06-10T11:24:34.801Z,9.67
2018-06-10T11:27:03.419Z,8.07
2018-06-10T11:29:32.010Z,7.33
2018-06-10T11:32:00.629Z,9.50
2018-06-10T11:34:29.237Z,8.00
2018-06-10T11:36:57.830Z,9.40
2018-06-10T11:39:26.465Z,9.60
2018-06-10T11:41:55.157Z,9.17
2018-06-10T11:44:23.823Z,9.37
2018-06-10T11:46:52.428Z,7.93
2018-06-10T11:49:21.029Z,8.57
2018-06-10T11:51:49.721Z,7.83
2018-06-10T11:54:18.290Z,8.57
2018-06-10T11:56:46.934Z,7.50
2018-06-10T11:59:15.476Z,8.50
2018-06-10T12:01:44.120Z,8.33
2018-06-10T12:04:12.320Z,8.80
2018-06-10T12:06:40.873Z,7.87
2018-06-10T12:09:09.444Z,8.90
2018-06-10T12:11:38.068Z,9.20
2018-06-10T12:14:06.663Z,9.67
2018-06-10T12:16:35.315Z,8.70
2018-06-10T12:19:03.864Z,8.30
2018-06-10T12:21:32.506Z,9.00
2018-06-10T12:24:01.102Z,9.53
2018-06-10T12:26:29.700Z,8.70
2018-06-10T12:28:58.284Z,9.00
2018-06-10T12:31:26.881Z,8.67
2018-06-10T12:33:55.461Z,7.97
2018-06-10T12:36:24.148Z,7.90
2018-06-10T12:38:52.740Z,8.60
2018-06-10T12:41:21.303Z,8.33
2018-06-10T12:43:49.874Z,6.67
2018-06-10T12:46:18.553Z,6.03
2018-06-10T12:48:47.108Z,6.10
2018-06-10T12:51:15.697Z,6.27
2018-06-10T12:53:44.254Z,6.70
2018-06-10T12:56:12.840Z,6.23
2018-06-10T12:58:41.415Z,7.60
2018-06-10T13:01:10.001Z,6.57
2018-06-10T13:03:38.532Z,6.63
2018-06-10T13:06:07.139Z,7.33
2018-06-10T13:08:35.688Z,7.67
2018-06-10T13:11:04.288Z,7.10
2018-06-10T13:13:32.848Z,7.40
2018-06-10T13:16:01.458Z,7.00
2018-06-10T13:18:30.071Z,6.57
2018-06-10T13:20:58.640Z,6.30
2018-06-10T13:23:27.189Z,6.37
2018-06-10T13:25:55.773Z,6.30
2018-06-10T13:28:24.359Z,6.20
2018-06-10T13:30:52.977Z,6.87
2018-06-10T13:33:21.616Z,7.90
2018-06-10T13:35:50.224Z,7.40
2018-06-10T13:38:18.773Z,6.30
2018-06-10T13:40:47.428Z,6.77
2018-06-10T13:43:15.980Z,6.23
2018-06-10T13:45:44.570Z,6.73
2018-06-10T13:48:13.128Z,6.90
2018-06-10T13:50:41.705Z,7.07
2018-06-10T13:53:10.286Z,6.00
2018-06-10T13:55:38.867Z,6.20
2018-06-10T13:58:07.493Z,6.07
2018-06-10T14:00:36.085Z,6.00
2018-06-10T14:03:04.689Z,6.37
2018-06-10T14:05:33.253Z,5.83
2018-06-10T14:08:01.827Z,5.90
2018-06-10T14:10:30.392Z,6.80
2018-06-10T14:12:58.611Z,5.90
2018-06-10T14:15:27.177Z,5.63
2018-06-10T14:17:55.835Z,6.07
2018-06-10T14:20:30.038Z,6.40
2018-06-10T14:22:58.308Z,5.83
2018-06-10T14:25:26.893Z,6.10
2018-06-10T14:27:55.531Z,5.80
2018-06-10T14:30:24.160Z,6.33
2018-06-10T14:33:02.445Z,5.13
2018-06-10T14:35:31.079Z,6.00
2018-06-10T14:37:59.694Z,5.13
2018-06-10T14:40:28.261Z,6.47
2018-06-10T14:42:56.837Z,5.83
2018-06-10T14:45:25.433Z,6.00
2018-06-10T14:47:54.020Z,6.43
2018-06-10T14:50:22.600Z,6.30
2018-06-10T14:52:51.439Z,5.57
2018-06-10T14:55:20.148Z,7.30
2018-06-10T14:57:48.776Z,6.50
2018-06-10T15:00:17.371Z,7.10
2018-06-10T15:02:46.067Z,7.30
2018-06-10T15:05:14.642Z,6.50
2018-06-10T15:07:43.234Z,6.27
2018-06-10T15:10:11.795Z,6.37
2018-06-10T15:12:40.372Z,5.87
2018-06-10T15:15:08.904Z,6.57
2018-06-10T15:17:37.500Z,5.50
2018-06-10T15:20:06.108Z,5.60
2018-06-10T15:22:34.742Z,5.30
2018-06-10T15:25:03.342Z,5.77
2018-06-10T15:27:31.937Z,7.83
2018-06-10T15:30:00.522Z,6.10
2018-06-10T15:32:29.104Z,6.57
2018-06-10T15:34:57.642Z,7.93
2018-06-10T15:37:26.206Z,5.53
2018-06-10T15:39:54.761Z,6.67
2018-06-10T15:42:23.373Z,7.40
2018-06-10T15:44:51.961Z,6.53
2018-06-10T15:47:20.545Z,7.97
2018-06-10T15:49:49.115Z,6.70
2018-06-10T15:52:17.743Z,5.80
2018-06-10T15:54:46.281Z,8.03
2018-06-10T15:57:14.984Z,5.13
2018-06-10T15:59:43.545Z,5.83
2018-06-10T16:02:12.127Z,7.67
2018-06-10T16:04:40.687Z,5.27
2018-06-10T16:07:09.302Z,6.90
2018-06-10T16:09:37.939Z,6.53
2018-06-10T16:12:06.525Z,5.60
2018-06-10T16:14:35.110Z,7.70
2018-06-10T16:17:03.738Z,6.70
2018-06-10T16:19:32.280Z,7.80
2018-06-10T16:22:00.868Z,9.03
2018-06-10T16:24:29.420Z,7.00
2018-06-10T16:26:58.008Z,8.10
2018-06-10T16:29:26.555Z,8.30
2018-06-10T16:31:55.165Z,6.00
2018-06-10T16:34:23.742Z,8.17
2018-06-10T16:36:52.293Z,6.03
2018-06-10T16:39:20.888Z,6.47
2018-06-10T16:41:49.492Z,8.70
2018-06-10T16:44:17.707Z,5.77
2018-06-10T16:46:46.314Z,7.77
2018-06-10T16:49:14.917Z,8.40
2018-06-10T16:51:43.558Z,6.70
2018-06-10T16:54:12.145Z,7.87
2018-06-10T16:56:40.689Z,7.23
2018-06-10T16:59:09.273Z,6.57
2018-06-10T17:01:37.868Z,8.93
2018-06-10T17:04:06.576Z,6.70
2018-06-10T17:06:35.147Z,6.83
2018-06-10T17:09:05.211Z,8.20
2018-06-10T17:11:33.761Z,7.00
2018-06-10T17:14:02.334Z,8.60
2018-06-10T17:16:30.897Z,6.73
2018-06-10T17:18:59.472Z,6.30
2018-06-10T17:21:28.063Z,8.27
2018-06-10T17:23:56.682Z,5.80
2018-06-10T17:26:25.247Z,6.50
2018-06-10T17:28:53.855Z,7.77
2018-06-10T17:31:22.436Z,5.77
2018-06-10T17:33:51.052Z,7.53
2018-06-10T17:36:19.657Z,7.63
2018-06-10T17:38:47.993Z,6.13
2018-06-10T17:41:16.570Z,8.20
2018-06-10T17:43:45.194Z,6.77
2018-06-10T17:46:13.740Z,6.70
2018-06-10T17:48:42.307Z,8.20
2018-06-10T17:51:10.837Z,6.20
2018-06-10T17:53:39.439Z,6.83
2018-06-10T17:56:07.972Z,8.20
2018-06-10T17:58:36.608Z,6.13
2018-06-10T18:01:05.176Z,8.43
2018-06-10T18:03:33.761Z,6.90
2018-06-10T18:06:02.296Z,5.53
2018-06-10T18:08:30.869Z,8.50
2018-06-10T18:10:59.400Z,8.60
2018-06-10T18:13:27.992Z,7.47
2018-06-10T18:15:56.559Z,8.20
2018-06-10T18:18:25.150Z,6.40
2018-06-10T18:20:53.725Z,8.43
2018-06-10T18:23:22.288Z,8.80
2018-06-10T18:25:50.833Z,6.80
2018-06-10T18:28:19.428Z,11.57
2018-06-10T18:30:48.000Z,7.07
2018-06-10T18:33:22.964Z,7.07
2018-06-10T18:35:51.507Z,8.53
2018-06-10T18:38:20.070Z,8.20
2018-06-10T18:40:48.702Z,10.03
2018-06-10T18:43:17.205Z,7.10
2018-06-10T18:45:45.745Z,9.10
2018-06-10T18:48:14.332Z,8.07
2018-06-10T18:50:42.563Z,6.87
2018-06-10T18:53:11.140Z,9.30
2018-06-10T18:55:39.688Z,9.40
2018-06-10T18:58:08.285Z,6.30
2018-06-10T19:00:36.828Z,8.60
2018-06-10T19:03:05.499Z,5.10
2018-06-10T19:05:34.002Z,7.47
2018-06-10T19:08:02.547Z,8.30
2018-06-10T19:10:31.181Z,6.00
2018-06-10T19:12:59.736Z,8.67
2018-06-10T19:15:28.361Z,6.50
2018-06-10T19:17:56.906Z,6.47
2018-06-10T19:20:25.527Z,8.93
2018-06-10T19:22:54.105Z,6.73
2018-06-10T19:25:22.689Z,6.97
2018-06-10T19:27:51.253Z,9.13
2018-06-10T19:30:19.908Z,5.80
2018-06-10T19:32:48.567Z,8.33
2018-06-10T19:35:17.166Z,7.17
2018-06-10T19:37:45.746Z,7.00
2018-06-10T19:40:14.417Z,11.47
2018-06-10T19:42:42.980Z,7.50
2018-06-10T19:45:11.590Z,8.67
2018-06-10T19:47:40.150Z,8.30
2018-06-10T19:50:08.723Z,6.83
2018-06-10T19:52:37.969Z,11.47
2018-06-10T19:55:06.584Z,8.23
2018-06-10T19:57:35.312Z,9.47
2018-06-10T20:00:04.013Z,9.57
2018-06-10T20:02:32.605Z,6.90
2018-06-10T20:05:07.609Z,10.10
2018-06-10T20:07:36.178Z,10.13
2018-06-10T20:10:04.953Z,10.37
2018-06-10T20:12:33.500Z,11.50
2018-06-10T20:15:02.140Z,8.67
2018-06-10T20:17:30.735Z,10.83
2018-06-10T20:19:59.384Z,8.73
2018-06-10T20:22:27.959Z,9.10
2018-06-10T20:24:56.561Z,8.70
2018-06-10T20:27:25.124Z,8.67
2018-06-10T20:29:53.755Z,7.30
2018-06-10T20:32:22.345Z,7.57
2018-06-10T20:34:50.948Z,7.57
2018-06-10T20:37:19.517Z,7.57
2018-06-10T20:39:48.106Z,8.40
2018-06-10T20:42:16.689Z,8.10
2018-06-10T20:44:45.257Z,8.10
2018-06-10T20:47:13.492Z,6.63
2018-06-10T20:49:42.064Z,8.73
2018-06-10T20:52:10.657Z,8.67
2018-06-10T20:54:39.242Z,7.90
2018-06-10T20:57:07.812Z,7.80
2018-06-10T20:59:36.377Z,7.43
2018-06-10T21:02:05.004Z,7.37
2018-06-10T21:04:33.567Z,7.60
2018-06-10T21:07:02.165Z,8.37
2018-06-10T21:09:30.765Z,7.00
2018-06-10T21:11:59.341Z,6.73
2018-06-10T21:14:27.901Z,8.13
2018-06-10T21:16:56.500Z,7.33
2018-06-10T21:19:25.059Z,7.23
2018-06-10T21:21:54.169Z,7.80
2018-06-10T21:24:22.753Z,8.17
2018-06-10T21:26:51.339Z,7.53
2018-06-10T21:29:19.908Z,7.70
2018-06-10T21:31:48.510Z,8.20
2018-06-10T21:34:17.105Z,8.37
2018-06-10T21:36:45.693Z,8.03
2018-06-10T21:39:14.237Z,8.53
2018-06-10T21:41:42.813Z,8.37
2018-06-10T21:44:11.372Z,8.03
2018-06-10T21:46:40.050Z,8.57
2018-06-10T21:49:08.593Z,9.10
2018-06-10T21:51:37.188Z,8.30
2018-06-10T21:54:05.785Z,8.13
2018-06-10T21:56:34.365Z,7.70
2018-06-10T21:59:03.034Z,7.97
2018-06-10T22:01:31.637Z,8.43
2018-06-10T22:04:00.203Z,8.37
2018-06-10T22:06:28.787Z,9.33
2018-06-10T22:08:57.328Z,8.53
2018-06-10T22:11:25.889Z,8.80
2018-06-10T22:13:54.577Z,8.60
2018-06-10T22:16:23.152Z,8.30
2018-06-10T22:18:51.760Z,9.17
2018-06-10T22:21:20.339Z,9.23
2018-06-10T22:23:48.928Z,9.57
2018-06-10T22:26:17.512Z,9.90
2018-06-10T22:28:46.081Z,8.93
2018-06-10T22:31:14.633Z,9.60
2018-06-10T22:33:43.359Z,9.30
2018-06-10T22:36:11.606Z,9.33
2018-06-10T22:38:40.240Z,9.73
2018-06-10T22:41:08.840Z,10.30
2018-06-10T22:43:37.441Z,11.17
2018-06-10T22:46:06.012Z,9.60
2018-06-10T22:48:34.620Z,9.47
2018-06-10T22:51:03.172Z,9.80
2018-06-10T22:54:10.302Z,10.03
2018-06-10T22:56:38.897Z,10.30
2018-06-10T22:59:07.491Z,11.67
2018-06-10T23:01:36.131Z,11.43
2018-06-10T23:04:04.756Z,12.60
2018-06-10T23:06:33.321Z,11.70
2018-06-10T23:09:01.953Z,12.03
2018-06-10T23:11:30.568Z,11.67
2018-06-10T23:13:59.177Z,11.27
2018-06-10T23:16:27.803Z,12.50
2018-06-10T23:18:56.398Z,12.00
2018-06-10T23:21:24.972Z,10.87
2018-06-10T23:23:53.600Z,10.87
2018-06-10T23:26:22.181Z,11.57
2018-06-10T23:28:50.784Z,10.87
2018-06-10T23:31:19.459Z,10.43
2018-06-10T23:33:48.067Z,10.70
2018-06-10T23:36:16.589Z,12.27
2018-06-10T23:38:45.201Z,12.17
2018-06-10T23:41:13.769Z,11.90
2018-06-10T23:43:42.425Z,11.00
2018-06-10T23:46:11.001Z,11.23
2018-06-10T23:48:39.255Z,11.43
2018-06-10T23:51:07.847Z,10.93
2018-06-10T23:53:36.458Z,11.30
2018-06-10T23:56:05.074Z,10.80
2018-06-10T23:58:33.692Z,10.77
